sensor_id;sensor_type;location;lat;lon;timestamp;P1;durP1;ratioP1;P2;durP2;ratioP2
34541;SDS011;20784;51.332;12.410;2024-01-30T00:01:51;6.95;;;3.92;;
34541;SDS011;20784;51.332;12.410;2024-01-30T00:04:19;6.63;;;4.07;;
34541;SDS011;20784;51.332;12.410;2024-01-30T00:06:53;5.78;;;3.63;;
34541;SDS011;20784;51.332;12.410;2024-01-30T00:09:21;10.13;;;4.03;;
34541;SDS011;20784;51.332;12.410;2024-01-30T00:11:47;6.55;;;4.03;;
34541;SDS011;20784;51.332;12.410;2024-01-30T00:14:12;8.85;;;4.00;;
34541;SDS011;20784;51.332;12.410;2024-01-30T00:16:39;6.93;;;3.45;;
34541;SDS011;20784;51.332;12.410;2024-01-30T00:19:07;6.55;;;3.72;;
34541;SDS011;20784;51.332;12.410;2024-01-30T00:21:33;5.15;;;3.15;;
34541;SDS011;20784;51.332;12.410;2024-01-30T00:23:59;6.90;;;3.55;;
34541;SDS011;20784;51.332;12.410;2024-01-30T00:26:24;6.70;;;3.40;;
34541;SDS011;20784;51.332;12.410;2024-01-30T00:28:50;6.30;;;3.75;;
34541;SDS011;20784;51.332;12.410;2024-01-30T00:31:19;6.72;;;3.22;;
34541;SDS011;20784;51.332;12.410;2024-01-30T00:33:44;6.57;;;3.30;;
34541;SDS011;20784;51.332;12.410;2024-01-30T00:36:12;8.20;;;3.35;;
34541;SDS011;20784;51.332;12.410;2024-01-30T00:38:41;7.28;;;3.45;;
34541;SDS011;20784;51.332;12.410;2024-01-30T00:41:10;7.78;;;3.53;;
34541;SDS011;20784;51.332;12.410;2024-01-30T00:43:36;5.68;;;3.40;;
34541;SDS011;20784;51.332;12.410;2024-01-30T00:46:04;9.27;;;3.45;;
34541;SDS011;20784;51.332;12.410;2024-01-30T00:48:30;6.80;;;3.67;;
34541;SDS011;20784;51.332;12.410;2024-01-30T00:50:56;8.07;;;4.10;;
34541;SDS011;20784;51.332;12.410;2024-01-30T00:53:26;6.30;;;3.80;;
34541;SDS011;20784;51.332;12.410;2024-01-30T00:55:52;7.05;;;3.67;;
34541;SDS011;20784;51.332;12.410;2024-01-30T00:58:21;7.15;;;3.92;;
34541;SDS011;20784;51.332;12.410;2024-01-30T01:00:46;7.20;;;3.47;;
34541;SDS011;20784;51.332;12.410;2024-01-30T01:03:12;4.30;;;2.95;;
34541;SDS011;20784;51.332;12.410;2024-01-30T01:05:38;6.90;;;3.15;;
34541;SDS011;20784;51.332;12.410;2024-01-30T01:08:04;6.25;;;3.65;;
34541;SDS011;20784;51.332;12.410;2024-01-30T01:10:30;9.38;;;3.55;;
34541;SDS011;20784;51.332;12.410;2024-01-30T01:12:55;8.43;;;3.55;;
34541;SDS011;20784;51.332;12.410;2024-01-30T01:15:29;7.35;;;3.58;;
34541;SDS011;20784;51.332;12.410;2024-01-30T01:17:56;7.45;;;3.80;;
34541;SDS011;20784;51.332;12.410;2024-01-30T01:20:21;7.90;;;4.05;;
34541;SDS011;20784;51.332;12.410;2024-01-30T01:22:47;9.80;;;3.78;;
34541;SDS011;20784;51.332;12.410;2024-01-30T01:25:18;6.85;;;4.18;;
34541;SDS011;20784;51.332;12.410;2024-01-30T01:27:44;6.57;;;3.10;;
34541;SDS011;20784;51.332;12.410;2024-01-30T01:30:16;8.95;;;3.95;;
34541;SDS011;20784;51.332;12.410;2024-01-30T01:32:55;7.53;;;3.70;;
34541;SDS011;20784;51.332;12.410;2024-01-30T01:35:23;9.82;;;3.97;;
34541;SDS011;20784;51.332;12.410;2024-01-30T01:37:54;5.25;;;3.25;;
34541;SDS011;20784;51.332;12.410;2024-01-30T01:40:27;7.20;;;3.72;;
34541;SDS011;20784;51.332;12.410;2024-01-30T01:42:55;8.45;;;4.07;;
34541;SDS011;20784;51.332;12.410;2024-01-30T01:45:21;8.80;;;4.20;;
34541;SDS011;20784;51.332;12.410;2024-01-30T01:47:47;7.18;;;4.43;;
34541;SDS011;20784;51.332;12.410;2024-01-30T01:50:18;8.68;;;3.80;;
34541;SDS011;20784;51.332;12.410;2024-01-30T01:52:45;9.10;;;4.15;;
34541;SDS011;20784;51.332;12.410;2024-01-30T01:55:13;7.65;;;4.07;;
34541;SDS011;20784;51.332;12.410;2024-01-30T01:57:57;8.25;;;3.90;;
34541;SDS011;20784;51.332;12.410;2024-01-30T02:00:31;9.85;;;4.43;;
34541;SDS011;20784;51.332;12.410;2024-01-30T02:02:57;7.72;;;4.05;;
34541;SDS011;20784;51.332;12.410;2024-01-30T02:05:24;7.53;;;3.85;;
34541;SDS011;20784;51.332;12.410;2024-01-30T02:07:51;8.55;;;4.45;;
34541;SDS011;20784;51.332;12.410;2024-01-30T02:10:20;11.45;;;4.03;;
34541;SDS011;20784;51.332;12.410;2024-01-30T02:12:46;11.35;;;4.47;;
34541;SDS011;20784;51.332;12.410;2024-01-30T02:15:16;9.32;;;4.07;;
34541;SDS011;20784;51.332;12.410;2024-01-30T02:17:42;7.95;;;4.28;;
34541;SDS011;20784;51.332;12.410;2024-01-30T02:20:08;12.57;;;4.97;;
34541;SDS011;20784;51.332;12.410;2024-01-30T02:22:37;11.85;;;4.45;;
34541;SDS011;20784;51.332;12.410;2024-01-30T02:25:06;7.78;;;4.45;;
34541;SDS011;20784;51.332;12.410;2024-01-30T02:27:32;9.40;;;4.70;;
34541;SDS011;20784;51.332;12.410;2024-01-30T02:29:58;7.78;;;4.28;;
34541;SDS011;20784;51.332;12.410;2024-01-30T02:32:26;7.28;;;4.20;;
34541;SDS011;20784;51.332;12.410;2024-01-30T02:34:52;9.98;;;4.55;;
34541;SDS011;20784;51.332;12.410;2024-01-30T02:37:20;8.18;;;4.38;;
34541;SDS011;20784;51.332;12.410;2024-01-30T02:39:46;10.02;;;4.10;;
34541;SDS011;20784;51.332;12.410;2024-01-30T02:42:11;9.50;;;4.45;;
34541;SDS011;20784;51.332;12.410;2024-01-30T02:44:40;8.25;;;4.07;;
34541;SDS011;20784;51.332;12.410;2024-01-30T02:47:06;9.85;;;3.92;;
34541;SDS011;20784;51.332;12.410;2024-01-30T02:49:32;11.10;;;5.05;;
34541;SDS011;20784;51.332;12.410;2024-01-30T02:51:57;7.43;;;4.25;;
34541;SDS011;20784;51.332;12.410;2024-01-30T02:54:23;7.47;;;4.32;;
34541;SDS011;20784;51.332;12.410;2024-01-30T02:56:48;7.85;;;4.30;;
34541;SDS011;20784;51.332;12.410;2024-01-30T02:59:16;8.07;;;4.25;;
34541;SDS011;20784;51.332;12.410;2024-01-30T03:01:42;7.88;;;4.47;;
34541;SDS011;20784;51.332;12.410;2024-01-30T03:04:09;8.70;;;4.38;;
34541;SDS011;20784;51.332;12.410;2024-01-30T03:06:35;7.93;;;3.70;;
34541;SDS011;20784;51.332;12.410;2024-01-30T03:09:00;6.88;;;3.97;;
34541;SDS011;20784;51.332;12.410;2024-01-30T03:11:26;9.23;;;3.95;;
34541;SDS011;20784;51.332;12.410;2024-01-30T03:13:52;9.25;;;4.32;;
34541;SDS011;20784;51.332;12.410;2024-01-30T03:16:17;9.38;;;4.20;;
34541;SDS011;20784;51.332;12.410;2024-01-30T03:18:43;7.07;;;3.88;;
34541;SDS011;20784;51.332;12.410;2024-01-30T03:21:12;10.00;;;4.45;;
34541;SDS011;20784;51.332;12.410;2024-01-30T03:23:37;11.35;;;4.18;;
34541;SDS011;20784;51.332;12.410;2024-01-30T03:26:05;10.00;;;4.80;;
34541;SDS011;20784;51.332;12.410;2024-01-30T03:28:31;7.57;;;4.07;;
34541;SDS011;20784;51.332;12.410;2024-01-30T03:30:59;8.85;;;4.45;;
34541;SDS011;20784;51.332;12.410;2024-01-30T03:33:25;8.38;;;3.78;;
34541;SDS011;20784;51.332;12.410;2024-01-30T03:35:52;10.48;;;4.70;;
34541;SDS011;20784;51.332;12.410;2024-01-30T03:38:17;10.48;;;5.13;;
34541;SDS011;20784;51.332;12.410;2024-01-30T03:40:43;8.98;;;4.32;;
34541;SDS011;20784;51.332;12.410;2024-01-30T03:43:08;5.70;;;3.80;;
34541;SDS011;20784;51.332;12.410;2024-01-30T03:45:34;8.60;;;4.60;;
34541;SDS011;20784;51.332;12.410;2024-01-30T03:47:59;11.05;;;4.40;;
34541;SDS011;20784;51.332;12.410;2024-01-30T03:50:25;10.43;;;4.32;;
34541;SDS011;20784;51.332;12.410;2024-01-30T03:52:51;7.85;;;4.30;;
34541;SDS011;20784;51.332;12.410;2024-01-30T03:55:19;7.78;;;4.22;;
34541;SDS011;20784;51.332;12.410;2024-01-30T03:57:45;8.23;;;4.80;;
34541;SDS011;20784;51.332;12.410;2024-01-30T04:00:13;9.70;;;4.78;;
34541;SDS011;20784;51.332;12.410;2024-01-30T04:02:39;7.80;;;4.93;;
34541;SDS011;20784;51.332;12.410;2024-01-30T04:05:16;10.85;;;4.35;;
34541;SDS011;20784;51.332;12.410;2024-01-30T04:07:41;8.73;;;3.95;;
34541;SDS011;20784;51.332;12.410;2024-01-30T04:10:12;7.43;;;3.88;;
34541;SDS011;20784;51.332;12.410;2024-01-30T04:12:46;13.47;;;4.77;;
34541;SDS011;20784;51.332;12.410;2024-01-30T04:15:12;8.80;;;4.68;;
34541;SDS011;20784;51.332;12.410;2024-01-30T04:17:45;7.20;;;4.05;;
34541;SDS011;20784;51.332;12.410;2024-01-30T04:20:14;8.68;;;4.40;;
34541;SDS011;20784;51.332;12.410;2024-01-30T04:22:44;16.40;;;4.88;;
34541;SDS011;20784;51.332;12.410;2024-01-30T04:25:11;9.50;;;4.18;;
34541;SDS011;20784;51.332;12.410;2024-01-30T04:27:41;11.02;;;4.55;;
34541;SDS011;20784;51.332;12.410;2024-01-30T04:30:07;9.20;;;4.10;;
34541;SDS011;20784;51.332;12.410;2024-01-30T04:32:36;8.70;;;4.15;;
34541;SDS011;20784;51.332;12.410;2024-01-30T04:35:16;7.47;;;4.10;;
34541;SDS011;20784;51.332;12.410;2024-01-30T04:37:42;9.20;;;4.15;;
34541;SDS011;20784;51.332;12.410;2024-01-30T04:40:10;7.03;;;4.32;;
34541;SDS011;20784;51.332;12.410;2024-01-30T04:42:42;9.30;;;4.80;;
34541;SDS011;20784;51.332;12.410;2024-01-30T04:45:07;10.02;;;4.25;;
34541;SDS011;20784;51.332;12.410;2024-01-30T04:47:33;6.78;;;4.15;;
34541;SDS011;20784;51.332;12.410;2024-01-30T04:49:59;8.82;;;4.10;;
34541;SDS011;20784;51.332;12.410;2024-01-30T04:52:24;9.50;;;4.13;;
34541;SDS011;20784;51.332;12.410;2024-01-30T04:54:50;17.63;;;4.82;;
34541;SDS011;20784;51.332;12.410;2024-01-30T04:57:16;9.38;;;4.40;;
34541;SDS011;20784;51.332;12.410;2024-01-30T04:59:41;10.35;;;4.85;;
34541;SDS011;20784;51.332;12.410;2024-01-30T05:02:07;8.88;;;4.38;;
34541;SDS011;20784;51.332;12.410;2024-01-30T05:04:32;9.90;;;4.30;;
34541;SDS011;20784;51.332;12.410;2024-01-30T05:07:04;6.68;;;3.72;;
34541;SDS011;20784;51.332;12.410;2024-01-30T05:09:33;8.43;;;4.00;;
34541;SDS011;20784;51.332;12.410;2024-01-30T05:12:02;10.48;;;4.60;;
34541;SDS011;20784;51.332;12.410;2024-01-30T05:14:30;9.65;;;4.22;;
34541;SDS011;20784;51.332;12.410;2024-01-30T05:16:56;9.68;;;4.35;;
34541;SDS011;20784;51.332;12.410;2024-01-30T05:19:22;8.73;;;4.22;;
34541;SDS011;20784;51.332;12.410;2024-01-30T05:24:19;10.10;;;4.40;;
34541;SDS011;20784;51.332;12.410;2024-01-30T05:26:47;9.85;;;4.60;;
34541;SDS011;20784;51.332;12.410;2024-01-30T05:29:20;7.60;;;4.53;;
34541;SDS011;20784;51.332;12.410;2024-01-30T05:31:46;7.32;;;3.80;;
34541;SDS011;20784;51.332;12.410;2024-01-30T05:34:17;10.35;;;4.32;;
34541;SDS011;20784;51.332;12.410;2024-01-30T05:39:13;8.00;;;4.47;;
34541;SDS011;20784;51.332;12.410;2024-01-30T05:41:39;8.80;;;4.07;;
34541;SDS011;20784;51.332;12.410;2024-01-30T05:44:08;8.13;;;4.63;;
34541;SDS011;20784;51.332;12.410;2024-01-30T05:46:35;9.45;;;4.40;;
34541;SDS011;20784;51.332;12.410;2024-01-30T05:49:03;7.97;;;4.90;;
34541;SDS011;20784;51.332;12.410;2024-01-30T05:51:28;9.40;;;4.05;;
34541;SDS011;20784;51.332;12.410;2024-01-30T05:53:54;7.75;;;4.38;;
34541;SDS011;20784;51.332;12.410;2024-01-30T05:56:20;8.40;;;4.15;;
34541;SDS011;20784;51.332;12.410;2024-01-30T05:58:45;10.10;;;4.38;;
34541;SDS011;20784;51.332;12.410;2024-01-30T06:01:14;14.80;;;4.82;;
34541;SDS011;20784;51.332;12.410;2024-01-30T06:03:40;7.07;;;4.03;;
34541;SDS011;20784;51.332;12.410;2024-01-30T06:06:05;17.08;;;6.93;;
34541;SDS011;20784;51.332;12.410;2024-01-30T06:08:31;10.60;;;5.90;;
34541;SDS011;20784;51.332;12.410;2024-01-30T06:10:57;18.92;;;9.18;;
34541;SDS011;20784;51.332;12.410;2024-01-30T06:13:24;13.10;;;6.97;;
34541;SDS011;20784;51.332;12.410;2024-01-30T06:16:02;10.25;;;4.40;;
34541;SDS011;20784;51.332;12.410;2024-01-30T06:18:29;15.55;;;4.70;;
34541;SDS011;20784;51.332;12.410;2024-01-30T06:20:56;7.03;;;4.30;;
34541;SDS011;20784;51.332;12.410;2024-01-30T06:23:27;9.68;;;4.82;;
34541;SDS011;20784;51.332;12.410;2024-01-30T06:26:00;9.32;;;4.38;;
34541;SDS011;20784;51.332;12.410;2024-01-30T06:28:25;9.57;;;4.15;;
34541;SDS011;20784;51.332;12.410;2024-01-30T06:30:51;11.32;;;5.00;;
34541;SDS011;20784;51.332;12.410;2024-01-30T06:33:19;9.30;;;4.90;;
34541;SDS011;20784;51.332;12.410;2024-01-30T06:35:47;9.38;;;4.75;;
34541;SDS011;20784;51.332;12.410;2024-01-30T06:38:23;11.98;;;5.30;;
34541;SDS011;20784;51.332;12.410;2024-01-30T06:40:49;13.45;;;5.53;;
34541;SDS011;20784;51.332;12.410;2024-01-30T06:43:24;8.35;;;4.57;;
34541;SDS011;20784;51.332;12.410;2024-01-30T06:48:52;12.98;;;4.65;;
34541;SDS011;20784;51.332;12.410;2024-01-30T06:51:20;7.50;;;4.45;;
34541;SDS011;20784;51.332;12.410;2024-01-30T06:54:29;8.93;;;5.00;;
34541;SDS011;20784;51.332;12.410;2024-01-30T06:57:00;7.00;;;4.40;;
34541;SDS011;20784;51.332;12.410;2024-01-30T06:59:38;13.10;;;4.88;;
34541;SDS011;20784;51.332;12.410;2024-01-30T07:02:14;14.77;;;4.30;;
34541;SDS011;20784;51.332;12.410;2024-01-30T07:05:00;8.23;;;4.47;;
34541;SDS011;20784;51.332;12.410;2024-01-30T07:07:28;10.68;;;4.53;;
34541;SDS011;20784;51.332;12.410;2024-01-30T07:09:54;10.82;;;4.75;;
34541;SDS011;20784;51.332;12.410;2024-01-30T07:15:30;9.52;;;4.65;;
34541;SDS011;20784;51.332;12.410;2024-01-30T07:21:42;7.90;;;4.38;;
34541;SDS011;20784;51.332;12.410;2024-01-30T07:24:13;8.43;;;4.65;;
34541;SDS011;20784;51.332;12.410;2024-01-30T07:26:49;11.85;;;4.85;;
34541;SDS011;20784;51.332;12.410;2024-01-30T07:29:18;10.70;;;6.10;;
34541;SDS011;20784;51.332;12.410;2024-01-30T07:31:46;10.07;;;4.68;;
34541;SDS011;20784;51.332;12.410;2024-01-30T07:34:38;11.50;;;4.53;;
34541;SDS011;20784;51.332;12.410;2024-01-30T07:37:07;10.45;;;4.97;;
34541;SDS011;20784;51.332;12.410;2024-01-30T07:39:36;8.70;;;4.50;;
34541;SDS011;20784;51.332;12.410;2024-01-30T07:42:10;7.90;;;4.35;;
34541;SDS011;20784;51.332;12.410;2024-01-30T07:44:38;12.52;;;4.75;;
34541;SDS011;20784;51.332;12.410;2024-01-30T07:47:06;11.25;;;4.65;;
34541;SDS011;20784;51.332;12.410;2024-01-30T07:49:32;9.02;;;5.13;;
34541;SDS011;20784;51.332;12.410;2024-01-30T07:52:07;10.25;;;5.18;;
34541;SDS011;20784;51.332;12.410;2024-01-30T07:54:33;10.50;;;4.82;;
34541;SDS011;20784;51.332;12.410;2024-01-30T07:57:09;8.45;;;4.70;;
34541;SDS011;20784;51.332;12.410;2024-01-30T07:59:35;9.45;;;5.07;;
34541;SDS011;20784;51.332;12.410;2024-01-30T08:02:03;12.95;;;4.90;;
34541;SDS011;20784;51.332;12.410;2024-01-30T08:04:34;8.77;;;4.70;;
34541;SDS011;20784;51.332;12.410;2024-01-30T08:07:05;11.55;;;4.93;;
34541;SDS011;20784;51.332;12.410;2024-01-30T08:09:40;8.82;;;4.60;;
34541;SDS011;20784;51.332;12.410;2024-01-30T08:12:15;12.07;;;5.03;;
34541;SDS011;20784;51.332;12.410;2024-01-30T08:14:49;15.15;;;4.97;;
34541;SDS011;20784;51.332;12.410;2024-01-30T08:17:28;8.82;;;4.80;;
34541;SDS011;20784;51.332;12.410;2024-01-30T08:19:57;11.20;;;4.85;;
34541;SDS011;20784;51.332;12.410;2024-01-30T08:22:43;9.27;;;5.20;;
34541;SDS011;20784;51.332;12.410;2024-01-30T08:25:17;8.93;;;5.10;;
34541;SDS011;20784;51.332;12.410;2024-01-30T08:27:52;10.55;;;4.97;;
34541;SDS011;20784;51.332;12.410;2024-01-30T08:30:32;8.30;;;4.75;;
34541;SDS011;20784;51.332;12.410;2024-01-30T08:33:01;9.07;;;4.57;;
34541;SDS011;20784;51.332;12.410;2024-01-30T08:35:36;13.00;;;5.28;;
34541;SDS011;20784;51.332;12.410;2024-01-30T08:38:08;11.43;;;5.05;;
34541;SDS011;20784;51.332;12.410;2024-01-30T08:40:37;12.40;;;4.80;;
34541;SDS011;20784;51.332;12.410;2024-01-30T08:43:33;11.88;;;5.25;;
34541;SDS011;20784;51.332;12.410;2024-01-30T08:46:20;13.05;;;5.53;;
34541;SDS011;20784;51.332;12.410;2024-01-30T08:48:51;9.57;;;4.75;;
34541;SDS011;20784;51.332;12.410;2024-01-30T08:51:19;8.63;;;5.10;;
34541;SDS011;20784;51.332;12.410;2024-01-30T08:53:45;10.88;;;5.00;;
34541;SDS011;20784;51.332;12.410;2024-01-30T08:56:30;10.20;;;5.43;;
34541;SDS011;20784;51.332;12.410;2024-01-30T08:59:08;9.23;;;4.90;;
34541;SDS011;20784;51.332;12.410;2024-01-30T09:01:44;17.85;;;5.47;;
34541;SDS011;20784;51.332;12.410;2024-01-30T09:04:20;8.55;;;4.57;;
34541;SDS011;20784;51.332;12.410;2024-01-30T09:07:11;9.57;;;5.30;;
34541;SDS011;20784;51.332;12.410;2024-01-30T09:09:43;10.02;;;5.13;;
34541;SDS011;20784;51.332;12.410;2024-01-30T09:12:17;10.13;;;5.03;;
34541;SDS011;20784;51.332;12.410;2024-01-30T09:14:57;9.25;;;4.93;;
34541;SDS011;20784;51.332;12.410;2024-01-30T09:17:26;10.82;;;5.70;;
34541;SDS011;20784;51.332;12.410;2024-01-30T09:23:17;7.53;;;4.65;;
34541;SDS011;20784;51.332;12.410;2024-01-30T09:29:38;10.80;;;4.57;;
34541;SDS011;20784;51.332;12.410;2024-01-30T09:32:24;7.75;;;4.80;;
34541;SDS011;20784;51.332;12.410;2024-01-30T09:38:02;9.52;;;5.00;;
34541;SDS011;20784;51.332;12.410;2024-01-30T09:40:39;9.50;;;5.33;;
34541;SDS011;20784;51.332;12.410;2024-01-30T09:43:07;9.10;;;5.00;;
34541;SDS011;20784;51.332;12.410;2024-01-30T09:45:56;9.45;;;5.25;;
34541;SDS011;20784;51.332;12.410;2024-01-30T09:48:23;9.70;;;5.45;;
34541;SDS011;20784;51.332;12.410;2024-01-30T09:50:57;13.52;;;5.30;;
34541;SDS011;20784;51.332;12.410;2024-01-30T09:53:29;12.50;;;5.68;;
34541;SDS011;20784;51.332;12.410;2024-01-30T09:56:08;9.45;;;5.25;;
34541;SDS011;20784;51.332;12.410;2024-01-30T09:58:36;8.07;;;5.15;;
34541;SDS011;20784;51.332;12.410;2024-01-30T10:01:05;12.63;;;5.30;;
34541;SDS011;20784;51.332;12.410;2024-01-30T10:03:33;10.15;;;5.45;;
34541;SDS011;20784;51.332;12.410;2024-01-30T10:06:15;16.65;;;5.68;;
34541;SDS011;20784;51.332;12.410;2024-01-30T10:08:55;9.80;;;5.68;;
34541;SDS011;20784;51.332;12.410;2024-01-30T10:11:23;8.43;;;5.32;;
34541;SDS011;20784;51.332;12.410;2024-01-30T10:13:53;9.15;;;5.30;;
34541;SDS011;20784;51.332;12.410;2024-01-30T10:16:26;9.57;;;5.10;;
34541;SDS011;20784;51.332;12.410;2024-01-30T10:18:55;11.02;;;4.80;;
34541;SDS011;20784;51.332;12.410;2024-01-30T10:21:27;11.70;;;5.55;;
34541;SDS011;20784;51.332;12.410;2024-01-30T10:23:57;12.30;;;6.00;;
34541;SDS011;20784;51.332;12.410;2024-01-30T10:26:26;10.90;;;4.88;;
34541;SDS011;20784;51.332;12.410;2024-01-30T10:29:02;9.45;;;5.35;;
34541;SDS011;20784;51.332;12.410;2024-01-30T10:31:39;14.03;;;6.37;;
34541;SDS011;20784;51.332;12.410;2024-01-30T10:34:05;12.90;;;6.50;;
34541;SDS011;20784;51.332;12.410;2024-01-30T10:36:31;9.30;;;5.55;;
34541;SDS011;20784;51.332;12.410;2024-01-30T10:39:06;13.05;;;5.55;;
34541;SDS011;20784;51.332;12.410;2024-01-30T10:41:45;9.38;;;5.40;;
34541;SDS011;20784;51.332;12.410;2024-01-30T10:44:16;16.92;;;5.57;;
34541;SDS011;20784;51.332;12.410;2024-01-30T10:49:13;9.68;;;5.65;;
34541;SDS011;20784;51.332;12.410;2024-01-30T10:51:40;12.02;;;5.47;;
34541;SDS011;20784;51.332;12.410;2024-01-30T10:54:07;8.63;;;5.30;;
34541;SDS011;20784;51.332;12.410;2024-01-30T10:56:37;9.13;;;5.78;;
34541;SDS011;20784;51.332;12.410;2024-01-30T10:59:10;10.95;;;5.32;;
34541;SDS011;20784;51.332;12.410;2024-01-30T11:01:38;9.55;;;5.57;;
34541;SDS011;20784;51.332;12.410;2024-01-30T11:04:11;16.85;;;6.25;;
34541;SDS011;20784;51.332;12.410;2024-01-30T11:06:50;11.70;;;5.45;;
34541;SDS011;20784;51.332;12.410;2024-01-30T11:09:17;11.57;;;5.75;;
34541;SDS011;20784;51.332;12.410;2024-01-30T11:11:57;13.40;;;6.00;;
34541;SDS011;20784;51.332;12.410;2024-01-30T11:14:41;12.20;;;6.68;;
34541;SDS011;20784;51.332;12.410;2024-01-30T11:17:16;10.32;;;5.50;;
34541;SDS011;20784;51.332;12.410;2024-01-30T11:19:42;12.93;;;6.25;;
34541;SDS011;20784;51.332;12.410;2024-01-30T11:22:08;11.75;;;5.93;;
34541;SDS011;20784;51.332;12.410;2024-01-30T11:24:45;9.65;;;4.93;;
34541;SDS011;20784;51.332;12.410;2024-01-30T11:27:17;11.02;;;5.57;;
34541;SDS011;20784;51.332;12.410;2024-01-30T11:29:43;12.73;;;5.70;;
34541;SDS011;20784;51.332;12.410;2024-01-30T11:32:21;10.30;;;5.80;;
34541;SDS011;20784;51.332;12.410;2024-01-30T11:34:50;11.27;;;5.28;;
34541;SDS011;20784;51.332;12.410;2024-01-30T11:37:15;12.10;;;5.57;;
34541;SDS011;20784;51.332;12.410;2024-01-30T11:39:50;13.25;;;5.47;;
34541;SDS011;20784;51.332;12.410;2024-01-30T11:42:22;11.75;;;6.03;;
34541;SDS011;20784;51.332;12.410;2024-01-30T11:45:05;11.55;;;6.07;;
34541;SDS011;20784;51.332;12.410;2024-01-30T11:47:34;13.25;;;5.50;;
34541;SDS011;20784;51.332;12.410;2024-01-30T11:50:16;13.70;;;5.72;;
34541;SDS011;20784;51.332;12.410;2024-01-30T11:55:20;8.13;;;5.20;;
34541;SDS011;20784;51.332;12.410;2024-01-30T11:57:46;11.32;;;5.85;;
34541;SDS011;20784;51.332;12.410;2024-01-30T12:00:15;9.52;;;5.30;;
34541;SDS011;20784;51.332;12.410;2024-01-30T12:02:49;10.57;;;5.00;;
34541;SDS011;20784;51.332;12.410;2024-01-30T12:05:16;8.95;;;5.82;;
34541;SDS011;20784;51.332;12.410;2024-01-30T12:07:50;10.80;;;5.40;;
34541;SDS011;20784;51.332;12.410;2024-01-30T12:10:23;13.73;;;5.50;;
34541;SDS011;20784;51.332;12.410;2024-01-30T12:16:02;13.60;;;5.75;;
34541;SDS011;20784;51.332;12.410;2024-01-30T12:18:58;10.77;;;5.22;;
34541;SDS011;20784;51.332;12.410;2024-01-30T12:21:30;6.13;;;4.68;;
34541;SDS011;20784;51.332;12.410;2024-01-30T12:23:59;8.90;;;5.20;;
34541;SDS011;20784;51.332;12.410;2024-01-30T12:26:32;11.23;;;5.38;;
34541;SDS011;20784;51.332;12.410;2024-01-30T12:29:09;9.82;;;5.47;;
34541;SDS011;20784;51.332;12.410;2024-01-30T12:31:38;12.65;;;5.35;;
34541;SDS011;20784;51.332;12.410;2024-01-30T12:34:14;10.00;;;5.30;;
34541;SDS011;20784;51.332;12.410;2024-01-30T12:37:02;10.02;;;5.43;;
34541;SDS011;20784;51.332;12.410;2024-01-30T12:39:36;14.43;;;5.13;;
34541;SDS011;20784;51.332;12.410;2024-01-30T12:42:02;8.63;;;4.75;;
34541;SDS011;20784;51.332;12.410;2024-01-30T12:44:56;11.15;;;5.35;;
34541;SDS011;20784;51.332;12.410;2024-01-30T12:47:45;9.80;;;4.85;;
34541;SDS011;20784;51.332;12.410;2024-01-30T12:50:11;9.18;;;5.13;;
34541;SDS011;20784;51.332;12.410;2024-01-30T12:52:37;7.60;;;5.07;;
34541;SDS011;20784;51.332;12.410;2024-01-30T12:55:03;13.63;;;5.15;;
34541;SDS011;20784;51.332;12.410;2024-01-30T12:57:29;8.57;;;4.90;;
34541;SDS011;20784;51.332;12.410;2024-01-30T12:59:54;12.98;;;4.72;;
34541;SDS011;20784;51.332;12.410;2024-01-30T13:02:20;11.65;;;5.05;;
34541;SDS011;20784;51.332;12.410;2024-01-30T13:04:50;9.50;;;4.75;;
34541;SDS011;20784;51.332;12.410;2024-01-30T13:07:16;14.85;;;5.32;;
34541;SDS011;20784;51.332;12.410;2024-01-30T13:09:52;9.90;;;4.85;;
34541;SDS011;20784;51.332;12.410;2024-01-30T13:12:25;9.18;;;5.45;;
34541;SDS011;20784;51.332;12.410;2024-01-30T13:14:58;9.48;;;5.53;;
34541;SDS011;20784;51.332;12.410;2024-01-30T13:17:39;9.63;;;5.72;;
34541;SDS011;20784;51.332;12.410;2024-01-30T13:20:14;12.18;;;5.38;;
34541;SDS011;20784;51.332;12.410;2024-01-30T13:22:44;10.48;;;5.20;;
34541;SDS011;20784;51.332;12.410;2024-01-30T13:25:30;11.85;;;5.57;;
34541;SDS011;20784;51.332;12.410;2024-01-30T13:28:16;8.98;;;5.25;;
34541;SDS011;20784;51.332;12.410;2024-01-30T13:30:51;8.55;;;4.90;;
34541;SDS011;20784;51.332;12.410;2024-01-30T13:33:17;12.27;;;6.07;;
34541;SDS011;20784;51.332;12.410;2024-01-30T13:35:43;8.75;;;5.47;;
34541;SDS011;20784;51.332;12.410;2024-01-30T13:38:34;12.65;;;5.72;;
34541;SDS011;20784;51.332;12.410;2024-01-30T13:41:00;9.68;;;5.10;;
34541;SDS011;20784;51.332;12.410;2024-01-30T13:43:26;7.75;;;5.38;;
34541;SDS011;20784;51.332;12.410;2024-01-30T13:48:24;12.13;;;5.35;;
34541;SDS011;20784;51.332;12.410;2024-01-30T13:50:55;9.93;;;5.38;;
34541;SDS011;20784;51.332;12.410;2024-01-30T13:53:28;9.15;;;5.97;;
34541;SDS011;20784;51.332;12.410;2024-01-30T13:55:54;10.27;;;5.53;;
34541;SDS011;20784;51.332;12.410;2024-01-30T13:58:20;15.07;;;5.70;;
34541;SDS011;20784;51.332;12.410;2024-01-30T14:00:45;9.98;;;5.50;;
34541;SDS011;20784;51.332;12.410;2024-01-30T14:03:14;11.80;;;5.45;;
34541;SDS011;20784;51.332;12.410;2024-01-30T14:05:42;11.77;;;6.25;;
34541;SDS011;20784;51.332;12.410;2024-01-30T14:08:16;8.85;;;5.45;;
34541;SDS011;20784;51.332;12.410;2024-01-30T14:10:51;16.03;;;6.37;;
34541;SDS011;20784;51.332;12.410;2024-01-30T14:13:20;12.88;;;5.65;;
34541;SDS011;20784;51.332;12.410;2024-01-30T14:15:57;11.48;;;5.78;;
34541;SDS011;20784;51.332;12.410;2024-01-30T14:18:36;11.23;;;5.88;;
34541;SDS011;20784;51.332;12.410;2024-01-30T14:21:06;10.48;;;5.40;;
34541;SDS011;20784;51.332;12.410;2024-01-30T14:23:33;14.07;;;5.38;;
34541;SDS011;20784;51.332;12.410;2024-01-30T14:26:21;10.38;;;5.47;;
34541;SDS011;20784;51.332;12.410;2024-01-30T14:28:47;13.00;;;6.10;;
34541;SDS011;20784;51.332;12.410;2024-01-30T14:31:12;11.93;;;5.82;;
34541;SDS011;20784;51.332;12.410;2024-01-30T14:33:39;13.20;;;5.95;;
34541;SDS011;20784;51.332;12.410;2024-01-30T14:36:04;8.57;;;5.13;;
34541;SDS011;20784;51.332;12.410;2024-01-30T14:38:30;8.82;;;5.18;;
34541;SDS011;20784;51.332;12.410;2024-01-30T14:40:56;12.27;;;5.75;;
34541;SDS011;20784;51.332;12.410;2024-01-30T14:43:21;10.13;;;5.57;;
34541;SDS011;20784;51.332;12.410;2024-01-30T14:45:47;12.10;;;5.65;;
34541;SDS011;20784;51.332;12.410;2024-01-30T14:48:14;10.25;;;5.57;;
34541;SDS011;20784;51.332;12.410;2024-01-30T14:50:40;12.40;;;5.90;;
34541;SDS011;20784;51.332;12.410;2024-01-30T14:53:11;13.27;;;5.78;;
34541;SDS011;20784;51.332;12.410;2024-01-30T14:55:36;15.07;;;6.22;;
34541;SDS011;20784;51.332;12.410;2024-01-30T14:58:05;10.45;;;5.32;;
34541;SDS011;20784;51.332;12.410;2024-01-30T15:00:31;12.02;;;5.78;;
34541;SDS011;20784;51.332;12.410;2024-01-30T15:02:56;16.27;;;5.50;;
34541;SDS011;20784;51.332;12.410;2024-01-30T15:05:28;13.68;;;5.82;;
34541;SDS011;20784;51.332;12.410;2024-01-30T15:07:54;7.45;;;5.00;;
34541;SDS011;20784;51.332;12.410;2024-01-30T15:10:19;10.43;;;5.80;;
34541;SDS011;20784;51.332;12.410;2024-01-30T15:12:45;12.20;;;5.82;;
34541;SDS011;20784;51.332;12.410;2024-01-30T15:15:11;11.80;;;5.22;;
34541;SDS011;20784;51.332;12.410;2024-01-30T15:17:36;14.48;;;5.35;;
34541;SDS011;20784;51.332;12.410;2024-01-30T15:20:03;9.35;;;5.07;;
34541;SDS011;20784;51.332;12.410;2024-01-30T15:22:29;12.05;;;5.45;;